Time;durP1;ratioP1;P1;durP2;ratioP2;P2;SDS_P1;SDS_P2;PMS_P1;PMS_P2;Temp;Humidity;BMP_temperature;BMP_pressure;BME280_temperature;BME280_humidity;BME280_pressure;Samples;Min_cycle;Max_cycle;Signal;HPM_P1;HPM_P2
2021/04/23 00:04:12;;;;;;;33.38;27.23;;;22.60;45.50;;;;;;4797628;55;21081;-32
2021/04/23 00:09:21;;;;;;;32.13;27.40;;;22.60;45.50;;;;;;4784855;55;21027;-29
2021/04/23 00:14:25;;;;;;;32.03;27.10;;;22.60;45.60;;;;;;4792620;55;21026;-27
2021/04/23 00:19:27;;;;;;;31.48;27.17;;;22.60;45.60;;;;;;4756122;55;21137;-37
2021/04/23 00:24:28;;;;;;;31.30;27.00;;;22.60;45.50;;;;;;4811718;55;21070;-32
2021/04/23 00:29:29;;;;;;;33.40;26.67;;;22.60;45.50;;;;;;4757727;55;21171;-36
2021/04/23 00:34:30;;;;;;;31.05;26.00;;;22.60;45.60;;;;;;4738157;59;21082;-34
2021/04/23 00:39:31;;;;;;;27.73;23.98;;;22.60;45.60;;;;;;4769504;55;21021;-34
2021/04/23 00:44:33;;;;;;;29.92;25.08;;;22.60;45.70;;;;;;4756584;55;21074;-36
2021/04/23 00:49:34;;;;;;;31.00;25.37;;;22.60;45.60;;;;;;4779034;55;21081;-30
2021/04/23 00:54:35;;;;;;;29.02;25.35;;;22.60;45.70;;;;;;4739176;55;21029;-38
2021/04/23 00:59:36;;;;;;;28.80;24.52;;;22.60;45.60;;;;;;4805608;55;21021;-37
2021/04/23 01:04:37;;;;;;;31.48;24.80;;;22.60;45.70;;;;;;4787885;55;21623;-30
2021/04/23 01:09:38;;;;;;;28.50;24.67;;;22.60;45.70;;;;;;4737788;59;21100;-26
2021/04/23 01:14:39;;;;;;;28.62;24.83;;;22.60;45.80;;;;;;4755034;55;22043;-37
2021/04/23 01:19:40;;;;;;;27.10;23.62;;;22.60;45.90;;;;;;4738204;59;21017;-36
2021/04/23 01:24:41;;;;;;;28.17;23.95;;;22.60;45.80;;;;;;4754328;55;22190;-36
2021/04/23 01:29:42;;;;;;;28.20;24.35;;;22.60;46.50;;;;;;4790131;55;21426;-36
2021/04/23 01:34:43;;;;;;;25.77;22.85;;;22.60;45.90;;;;;;4756247;55;21025;-27
2021/04/23 01:39:44;;;;;;;26.02;23.23;;;22.60;45.80;;;;;;4737810;59;21025;-31
2021/04/23 01:44:48;;;;;;;25.17;22.30;;;22.60;45.70;;;;;;4774381;55;21022;-37
2021/04/23 01:49:50;;;;;;;28.45;23.87;;;22.60;45.80;;;;;;4744728;55;21022;-32
2021/04/23 01:54:51;;;;;;;26.27;22.55;;;22.60;45.80;;;;;;4743178;55;21049;-36
2021/04/23 01:59:52;;;;;;;26.17;23.33;;;22.60;45.80;;;;;;4810355;55;21046;-37
2021/04/23 02:04:53;;;;;;;25.15;21.90;;;22.60;45.70;;;;;;4763152;55;21101;-26
2021/04/23 02:09:54;;;;;;;25.83;21.90;;;22.60;45.80;;;;;;4776343;55;21002;-29
2021/04/23 02:14:55;;;;;;;25.70;21.73;;;22.60;45.80;;;;;;4777966;55;21030;-37
2021/04/23 02:19:56;;;;;;;23.83;21.23;;;22.60;45.80;;;;;;4750461;55;21021;-35
2021/04/23 02:24:56;;;;;;;24.17;21.25;;;22.60;45.80;;;;;;4784678;55;21061;-36
2021/04/23 02:29:57;;;;;;;22.87;19.40;;;22.60;45.80;;;;;;4803129;55;21452;-36
2021/04/23 02:34:58;;;;;;;22.95;19.92;;;22.60;45.80;;;;;;4756172;55;21021;-21
2021/04/23 02:39:59;;;;;;;23.17;20.48;;;22.60;45.80;;;;;;4753482;55;21006;-26
2021/04/23 02:45:00;;;;;;;22.48;19.45;;;22.60;45.70;;;;;;4780409;55;20994;-31
2021/04/23 02:50:01;;;;;;;21.90;19.02;;;22.60;45.70;;;;;;4750435;55;21077;-31
2021/04/23 02:55:05;;;;;;;21.83;19.42;;;22.60;45.70;;;;;;4754558;55;21635;-29
2021/04/23 03:00:16;;;;;;;23.25;19.17;;;22.50;45.70;;;;;;4738674;59;21065;-36
2021/04/23 03:05:19;;;;;;;21.10;18.55;;;22.60;45.80;;;;;;4748674;55;21022;-32
2021/04/23 03:10:26;;;;;;;21.70;18.77;;;22.60;45.70;;;;;;4738385;59;21330;-36
2021/04/23 03:15:28;;;;;;;22.00;19.45;;;22.60;45.60;;;;;;4761042;55;21022;-37
2021/04/23 03:20:29;;;;;;;21.27;18.70;;;22.60;45.60;;;;;;4738459;59;21078;-30
2021/04/23 03:25:32;;;;;;;21.20;18.40;;;22.60;45.60;;;;;;4763553;55;21540;-29
2021/04/23 03:30:36;;;;;;;20.95;18.00;;;22.50;45.60;;;;;;4742194;55;21014;-25
2021/04/23 03:35:39;;;;;;;20.00;17.83;;;22.60;45.50;;;;;;4764111;55;21050;-34
2021/04/23 03:40:41;;;;;;;19.40;17.35;;;22.60;45.50;;;;;;4738629;59;21030;-32
2021/04/23 03:45:41;;;;;;;19.58;16.85;;;22.50;45.40;;;;;;4809589;55;20989;-35
2021/04/23 03:50:43;;;;;;;19.73;17.27;;;22.50;45.40;;;;;;4780350;55;20978;-34
2021/04/23 03:55:52;;;;;;;19.45;17.35;;;22.60;45.40;;;;;;4738270;59;20994;-28
2021/04/23 04:01:02;;;;;;;19.70;17.55;;;22.60;45.40;;;;;;4744034;55;21552;-32
2021/04/23 04:06:05;;;;;;;19.23;17.23;;;22.50;45.40;;;;;;4769909;55;21007;-36
2021/04/23 04:11:06;;;;;;;18.37;16.37;;;22.60;45.40;;;;;;4786451;55;21038;-27
2021/04/23 04:16:07;;;;;;;17.70;15.80;;;22.50;46.10;;;;;;4782464;55;21512;-36
2021/04/23 04:21:08;;;;;;;19.27;17.05;;;22.50;45.50;;;;;;4774998;55;21106;-29
2021/04/23 04:26:08;;;;;;;17.37;15.35;;;22.60;45.40;;;;;;4762792;55;21607;-29
2021/04/23 04:31:09;;;;;;;17.23;15.35;;;22.50;45.30;;;;;;4737916;56;21002;-25
2021/04/23 04:36:11;;;;;;;17.87;15.68;;;22.50;45.30;;;;;;4750911;55;21046;-28
2021/04/23 04:41:12;;;;;;;18.48;15.52;;;22.50;45.30;;;;;;4776172;55;21001;-30
2021/04/23 04:46:13;;;;;;;16.17;14.50;;;22.50;45.30;;;;;;4737970;59;21037;-26
2021/04/23 04:51:14;;;;;;;15.82;14.13;;;22.50;45.30;;;;;;4751212;55;21002;-28
2021/04/23 04:56:15;;;;;;;17.33;15.25;;;22.50;45.30;;;;;;4750706;55;20986;-28
2021/04/23 05:01:16;;;;;;;16.75;14.80;;;22.50;45.30;;;;;;4760292;55;21104;-31
2021/04/23 05:06:18;;;;;;;16.33;14.55;;;22.50;45.20;;;;;;4750278;55;21532;-36
2021/04/23 05:11:19;;;;;;;16.33;13.73;;;22.50;45.20;;;;;;4740148;55;21021;-31
2021/04/23 05:16:20;;;;;;;17.33;14.75;;;22.50;45.20;;;;;;4750772;55;21131;-36
2021/04/23 05:21:21;;;;;;;15.57;13.82;;;22.50;45.10;;;;;;4737790;59;21014;-33
2021/04/23 05:26:22;;;;;;;15.80;13.68;;;22.50;45.10;;;;;;4740924;55;21591;-32
2021/04/23 05:31:22;;;;;;;16.15;14.38;;;22.50;45.20;;;;;;4769228;55;21049;-36
2021/04/23 05:36:23;;;;;;;16.15;13.98;;;22.50;45.20;;;;;;4755764;55;21034;-36
2021/04/23 05:41:24;;;;;;;15.98;14.02;;;22.50;45.10;;;;;;4738109;59;21045;-36
2021/04/23 05:46:25;;;;;;;15.80;14.10;;;22.50;45.00;;;;;;4830360;55;21022;-29
2021/04/23 05:51:26;;;;;;;17.48;14.05;;;22.50;45.10;;;;;;4773050;55;21080;-33
2021/04/23 05:56:27;;;;;;;15.95;14.07;;;22.50;45.00;;;;;;4742747;55;21010;-28
2021/04/23 06:01:28;;;;;;;15.13;13.52;;;22.50;45.00;;;;;;4751816;55;21025;-34
2021/04/23 06:06:29;;;;;;;16.37;13.93;;;22.50;45.00;;;;;;4747229;55;21061;-32
2021/04/23 06:11:30;;;;;;;18.00;14.90;;;22.50;45.10;;;;;;4743009;55;21103;-28
2021/04/23 06:16:31;;;;;;;16.90;15.07;;;22.50;45.00;;;;;;4780741;55;21077;-31
2021/04/23 06:21:32;;;;;;;18.00;14.40;;;22.50;45.00;;;;;;4756595;55;21041;-29
2021/04/23 06:26:33;;;;;;;17.87;15.35;;;22.50;45.00;;;;;;4755140;55;21009;-31
2021/04/23 06:31:34;;;;;;;17.17;14.73;;;22.50;45.00;;;;;;4754243;55;21607;-29
2021/04/23 06:36:35;;;;;;;18.23;15.05;;;22.50;45.00;;;;;;4748336;55;21033;-35
2021/04/23 06:41:36;;;;;;;16.42;14.70;;;22.50;45.00;;;;;;4737922;59;21116;-24
2021/04/23 06:46:37;;;;;;;18.17;15.32;;;22.50;45.00;;;;;;4768047;55;22098;-35
2021/04/23 06:51:38;;;;;;;18.65;15.75;;;22.50;45.00;;;;;;4739500;55;21141;-35
2021/04/23 06:56:39;;;;;;;18.20;14.98;;;22.50;45.10;;;;;;4756217;55;21037;-28
2021/04/23 07:01:40;;;;;;;17.33;15.15;;;22.50;45.10;;;;;;4746456;55;21069;-32
2021/04/23 07:06:42;;;;;;;22.23;16.70;;;22.50;45.10;;;;;;4755004;55;21030;-34
2021/04/23 07:11:43;;;;;;;19.75;15.75;;;22.50;45.10;;;;;;4744098;55;22061;-33
2021/04/23 07:16:44;;;;;;;17.85;15.25;;;22.50;45.30;;;;;;4758342;55;21086;-34
2021/04/23 07:21:44;;;;;;;19.23;16.62;;;22.60;45.40;;;;;;4772364;55;21041;-28
2021/04/23 07:26:45;;;;;;;17.52;15.43;;;22.70;45.60;;;;;;4782581;55;21418;-27
2021/04/23 07:31:46;;;;;;;20.33;16.65;;;22.70;45.80;;;;;;4781876;55;21022;-29
2021/04/23 07:36:47;;;;;;;19.80;16.12;;;22.80;45.90;;;;;;4737757;59;21515;-29
2021/04/23 07:41:50;;;;;;;18.80;16.75;;;22.80;46.10;;;;;;4745299;55;20990;-27
2021/04/23 07:46:51;;;;;;;19.08;16.50;;;22.80;46.10;;;;;;4739761;55;21104;-32
2021/04/23 07:51:52;;;;;;;21.95;18.00;;;22.80;46.30;;;;;;4777725;55;21034;-32
2021/04/23 07:56:53;;;;;;;23.25;18.30;;;22.80;46.40;;;;;;4735018;59;21351;-25
2021/04/23 08:01:55;;;;;;;23.27;18.95;;;22.90;46.70;;;;;;4757500;55;21943;-32
2021/04/23 08:06:56;;;;;;;24.65;17.52;;;23.00;46.90;;;;;;4752731;55;21640;-29
2021/04/23 08:11:57;;;;;;;22.05;17.87;;;23.00;47.20;;;;;;4741250;55;21560;-30
2021/04/23 08:16:58;;;;;;;28.48;18.90;;;23.00;48.00;;;;;;4763622;55;21029;-29
2021/04/23 08:21:59;;;;;;;25.05;18.92;;;23.10;47.60;;;;;;4737726;59;21030;-31
2021/04/23 08:27:00;;;;;;;26.70;20.65;;;23.10;47.80;;;;;;4740723;55;21085;-31
2021/04/23 08:32:01;;;;;;;26.75;20.55;;;23.10;47.90;;;;;;4754994;55;21022;-30
2021/04/23 08:37:02;;;;;;;27.08;21.40;;;23.20;48.10;;;;;;4755271;55;21022;-31
2021/04/23 08:42:04;;;;;;;29.12;22.58;;;23.20;48.30;;;;;;4739972;55;21661;-29
2021/04/23 08:47:05;;;;;;;28.90;23.08;;;23.20;48.40;;;;;;4753758;55;21189;-27
2021/04/23 08:52:06;;;;;;;33.60;22.33;;;23.20;48.70;;;;;;4754266;55;21508;-34
2021/04/23 08:57:08;;;;;;;28.90;23.38;;;23.30;48.70;;;;;;4737501;59;21061;-32
2021/04/23 09:02:09;;;;;;;34.40;23.65;;;23.30;48.70;;;;;;4777654;55;21698;-30
2021/04/23 09:07:10;;;;;;;29.45;24.08;;;23.30;48.90;;;;;;4746192;55;21077;-32
2021/04/23 09:12:26;;;;;;;34.70;24.12;;;23.30;48.90;;;;;;4745612;55;21042;-24
2021/04/23 09:17:28;;;;;;;36.13;25.35;;;23.30;49.10;;;;;;4755949;55;21113;-35
2021/04/23 09:22:31;;;;;;;33.53;25.00;;;23.30;49.10;;;;;;4751498;55;21018;-24
2021/04/23 09:27:35;;;;;;;28.92;22.70;;;23.40;49.30;;;;;;4769882;55;21042;-29
2021/04/23 09:32:38;;;;;;;36.85;24.45;;;23.40;49.20;;;;;;4736978;59;21034;-26
2021/04/23 09:37:52;;;;;;;32.50;24.60;;;23.40;49.30;;;;;;4740879;55;21013;-26
2021/04/23 09:42:56;;;;;;;32.55;25.80;;;23.40;49.40;;;;;;4746914;55;21452;-31
2021/04/23 09:47:57;;;;;;;30.73;24.98;;;23.40;49.50;;;;;;4754224;55;21616;-31
2021/04/23 09:52:58;;;;;;;31.20;25.30;;;23.40;49.60;;;;;;4766018;55;21026;-30
2021/04/23 09:58:02;;;;;;;35.97;25.52;;;23.40;50.30;;;;;;4762391;55;21465;-30
2021/04/23 10:03:05;;;;;;;39.30;27.30;;;23.40;49.70;;;;;;4759199;55;21437;-35
2021/04/23 10:08:11;;;;;;;35.00;26.02;;;23.50;49.80;;;;;;4760401;55;21572;-25
2021/04/23 10:13:15;;;;;;;32.70;26.10;;;23.50;49.80;;;;;;4760116;55;21097;-26
2021/04/23 10:18:16;;;;;;;33.40;26.83;;;23.50;49.80;;;;;;4737782;59;22185;-32
2021/04/23 10:23:23;;;;;;;36.13;26.35;;;23.50;50.50;;;;;;4749456;55;21052;-32
2021/04/23 10:28:25;;;;;;;32.50;25.33;;;23.50;49.90;;;;;;4794563;55;20990;-29
2021/04/23 10:33:31;;;;;;;34.47;25.62;;;23.50;49.80;;;;;;4737281;55;21082;-23
2021/04/23 10:38:35;;;;;;;36.38;26.92;;;23.50;49.90;;;;;;4762924;55;21684;-31
2021/04/23 10:43:48;;;;;;;36.58;28.73;;;23.60;49.90;;;;;;4749746;55;21492;-26
2021/04/23 10:48:49;;;;;;;37.83;29.42;;;23.60;49.80;;;;;;4810678;55;20998;-33
2021/04/23 10:54:04;;;;;;;39.45;32.08;;;23.60;49.80;;;;;;4755380;55;21002;-31
2021/04/23 10:59:32;;;;;;;44.00;32.17;;;23.50;49.70;;;;;;4760210;55;21464;-29
2021/04/23 11:04:59;;;;;;;43.80;31.00;;;23.50;49.50;;;;;;4766071;55;21500;-27
2021/04/23 11:10:02;;;;;;;;;;;23.60;49.70;;;;;;4800159;55;21532;-25
2021/04/23 11:15:17;;;;;;;40.08;31.17;;;23.50;49.60;;;;;;4737655;55;20096;-27
2021/04/23 11:20:30;;;;;;;44.47;31.00;;;23.50;49.60;;;;;;4777932;55;21528;-26
2021/04/23 11:25:31;;;;;;;39.50;31.20;;;23.50;49.50;;;;;;4799720;55;21524;-27
2021/04/23 11:31:24;;;;;;;41.45;30.77;;;23.50;49.50;;;;;;4738607;55;21165;-27
2021/04/23 11:36:37;;;;;;;41.97;29.67;;;23.50;49.50;;;;;;4743959;55;21468;-20
2021/04/23 11:42:06;;;;;;;41.97;31.75;;;23.50;49.40;;;;;;4758310;55;21054;-30
2021/04/23 11:47:07;;;;;;;42.10;32.35;;;23.60;49.40;;;;;;4737019;55;21017;-27
2021/04/23 11:52:09;;;;;;;40.80;31.15;;;23.60;49.40;;;;;;4819707;55;21026;-26
2021/04/23 11:57:14;;;;;;;42.97;32.05;;;23.60;49.40;;;;;;4746553;55;21005;-31
2021/04/23 12:02:39;;;;;;;41.90;32.92;;;23.60;49.40;;;;;;4807735;55;22187;-29
2021/04/23 12:07:45;;;;;;;42.62;33.20;;;23.60;49.40;;;;;;4740155;55;21021;-23
2021/04/23 12:12:46;;;;;;;43.28;33.28;;;23.60;49.40;;;;;;4767931;55;21595;-31
2021/04/23 12:17:48;;;;;;;41.00;32.97;;;23.60;49.40;;;;;;4778265;55;21491;-33
2021/04/23 12:22:50;;;;;;;43.75;34.33;;;23.70;49.40;;;;;;4746959;55;21017;-25
2021/04/23 12:27:50;;;;;;;41.42;33.38;;;23.70;49.50;;;;;;4740718;55;21005;-29
2021/04/23 12:32:53;;;;;;;44.03;34.42;;;23.70;49.50;;;;;;4748719;55;21102;-27
2021/04/23 12:37:54;;;;;;;39.20;32.33;;;23.70;49.40;;;;;;4808435;55;21033;-32
2021/04/23 12:42:55;;;;;;;43.83;34.08;;;23.70;49.40;;;;;;4737553;59;20990;-32
2021/04/23 12:47:56;;;;;;;44.15;33.00;;;23.70;49.40;;;;;;4782908;55;21582;-25
2021/04/23 12:52:57;;;;;;;44.40;34.10;;;23.70;49.20;;;;;;4757926;55;21010;-28
2021/04/23 12:57:58;;;;;;;41.17;33.40;;;23.70;49.10;;;;;;4742109;55;20994;-28
2021/04/23 13:03:01;;;;;;;38.90;32.95;;;23.70;49.00;;;;;;4780718;55;21109;-32
2021/04/23 13:08:04;;;;;;;38.05;32.80;;;23.70;48.90;;;;;;4755453;55;22087;-34
2021/04/23 13:13:21;;;;;;;41.90;34.20;;;23.70;48.80;;;;;;4777436;55;21085;-29
2021/04/23 13:18:22;;;;;;;;;;;23.70;48.80;;;;;;4780778;55;21000;-28
2021/04/23 13:23:57;;;;;;;43.40;33.22;;;23.70;48.70;;;;;;4740329;55;20093;-33
2021/04/23 13:29:06;;;;;;;40.75;33.25;;;23.70;48.70;;;;;;4747791;55;20978;-28
2021/04/23 13:34:09;;;;;;;42.90;33.33;;;23.70;48.60;;;;;;4760302;55;21074;-29
2021/04/23 13:39:14;;;;;;;43.00;32.30;;;23.70;48.50;;;;;;4737568;59;21050;-32
2021/04/23 13:44:20;;;;;;;46.22;35.25;;;23.70;48.40;;;;;;4753365;55;21492;-29
2021/04/23 13:49:36;;;;;;;42.95;33.17;;;23.70;48.20;;;;;;4739544;55;21057;-29
2021/04/23 13:54:37;;;;;;;46.35;34.47;;;23.70;48.00;;;;;;4736666;59;21472;-36
2021/04/23 13:59:39;;;;;;;46.92;35.35;;;23.60;47.80;;;;;;4796286;55;21017;-31
2021/04/23 14:04:40;;;;;;;58.47;43.97;;;23.60;47.60;;;;;;4752319;55;21156;-32
2021/04/23 14:09:42;;;;;;;67.40;50.25;;;23.40;45.80;;;;;;4743667;55;21456;-33
2021/04/23 14:14:43;;;;;;;64.80;50.40;;;23.40;45.20;;;;;;4754268;55;21062;-35
2021/04/23 14:19:49;;;;;;;66.82;50.45;;;23.40;45.10;;;;;;4767471;55;21471;-35
2021/04/23 14:24:50;;;;;;;68.25;50.38;;;23.30;45.20;;;;;;4788702;55;21066;-32
2021/04/23 14:29:51;;;;;;;61.42;48.95;;;23.30;45.20;;;;;;4739324;55;21030;-34
2021/04/23 14:34:51;;;;;;;59.17;49.22;;;23.30;45.80;;;;;;4755521;55;21483;-30
2021/04/23 14:39:52;;;;;;;56.85;47.00;;;23.30;45.20;;;;;;4763400;55;21045;-38
2021/04/23 14:44:53;;;;;;;60.05;47.25;;;23.30;45.20;;;;;;4738062;55;20998;-33
2021/04/23 14:49:54;;;;;;;58.70;47.88;;;23.30;45.60;;;;;;4735521;55;21045;-32
2021/04/23 14:54:55;;;;;;;62.50;48.17;;;23.20;45.00;;;;;;4767511;55;21002;-34
2021/04/23 14:59:56;;;;;;;60.33;49.75;;;23.20;45.00;;;;;;4762286;55;21010;-34
2021/04/23 15:04:56;;;;;;;59.80;47.72;;;23.30;45.00;;;;;;4737921;55;21086;-31
2021/04/23 15:09:57;;;;;;;61.50;45.90;;;23.20;45.10;;;;;;4750334;55;20990;-35
2021/04/23 15:14:58;;;;;;;56.67;46.42;;;23.20;45.10;;;;;;4767859;55;21030;-32
2021/04/23 15:19:59;;;;;;;61.35;46.72;;;23.10;45.10;;;;;;4741489;55;21499;-32
2021/04/23 15:25:00;;;;;;;56.33;45.25;;;23.10;45.10;;;;;;4793925;55;21137;-33
2021/04/23 15:30:05;;;;;;;58.97;45.92;;;23.10;45.00;;;;;;4806873;55;21124;-28
2021/04/23 15:35:08;;;;;;;57.42;46.05;;;23.10;45.00;;;;;;4737842;59;21093;-29
2021/04/23 15:40:13;;;;;;;55.08;44.80;;;23.10;45.00;;;;;;4750365;55;20986;-35
2021/04/23 15:45:27;;;;;;;52.75;43.55;;;23.10;45.00;;;;;;4738422;57;21460;-32
2021/04/23 15:50:31;;;;;;;55.40;44.10;;;23.10;45.00;;;;;;4779603;55;20998;-34
2021/04/23 15:55:32;;;;;;;55.70;44.17;;;23.10;45.00;;;;;;4737735;59;21081;-32
2021/04/23 16:00:35;;;;;;;54.63;43.67;;;23.10;45.00;;;;;;4738005;59;20998;-33
2021/04/23 16:05:37;;;;;;;52.00;42.78;;;23.10;44.90;;;;;;4742886;55;21077;-32
2021/04/23 16:10:38;;;;;;;53.00;44.20;;;23.00;44.90;;;;;;4738031;55;21026;-36
2021/04/23 16:15:39;;;;;;;56.22;44.63;;;23.10;44.80;;;;;;4739507;55;21025;-31
2021/04/23 16:20:40;;;;;;;50.30;41.72;;;23.00;44.80;;;;;;4744593;55;21054;-35
2021/04/23 16:25:41;;;;;;;54.55;42.80;;;23.10;44.70;;;;;;4742907;55;21081;-34
2021/04/23 16:30:42;;;;;;;50.17;41.58;;;23.00;44.70;;;;;;4769363;55;21006;-32
2021/04/23 16:35:42;;;;;;;49.47;41.35;;;23.00;44.60;;;;;;4738293;59;21038;-22
2021/04/23 16:40:43;;;;;;;48.35;40.55;;;23.00;44.60;;;;;;4762944;55;21021;-32
2021/04/23 16:45:44;;;;;;;47.90;40.28;;;23.00;44.50;;;;;;4738167;59;21552;-31
2021/04/23 16:50:46;;;;;;;48.87;40.83;;;23.00;44.50;;;;;;4745267;55;21066;-30
2021/04/23 16:55:47;;;;;;;47.88;40.45;;;23.00;44.40;;;;;;4782337;55;21006;-33
2021/04/23 17:00:48;;;;;;;48.63;40.00;;;23.00;44.50;;;;;;4745180;55;21562;-33
2021/04/23 17:05:48;;;;;;;48.22;39.85;;;23.00;44.30;;;;;;4753142;55;21069;-37
2021/04/23 17:10:49;;;;;;;45.78;38.47;;;23.00;44.20;;;;;;4767193;55;21491;-35
2021/04/23 17:15:50;;;;;;;51.50;39.88;;;23.00;44.30;;;;;;4748235;55;21065;-33
2021/04/23 17:20:51;;;;;;;50.15;40.80;;;23.00;44.10;;;;;;4747185;55;21073;-26
2021/04/23 17:25:52;;;;;;;48.53;38.22;;;23.00;44.10;;;;;;4738107;59;21014;-31
2021/04/23 17:30:53;;;;;;;44.42;38.88;;;23.00;44.10;;;;;;4746542;55;21512;-37
2021/04/23 17:35:54;;;;;;;47.22;38.92;;;23.00;44.00;;;;;;4749392;55;21014;-37
2021/04/23 17:40:55;;;;;;;48.05;38.92;;;23.00;43.90;;;;;;4765628;55;21006;-36
2021/04/23 17:45:56;;;;;;;46.47;39.33;;;22.90;43.90;;;;;;4808286;55;21503;-36
2021/04/23 17:50:56;;;;;;;45.40;39.03;;;23.00;43.90;;;;;;4780349;55;21014;-35
2021/04/23 17:55:57;;;;;;;48.25;39.72;;;23.00;43.90;;;;;;4737665;59;21013;-34
2021/04/23 18:00:58;;;;;;;47.22;39.50;;;23.00;44.50;;;;;;4738894;55;21005;-37
2021/04/23 18:05:59;;;;;;;43.80;37.60;;;23.00;43.80;;;;;;4800296;55;21101;-29
2021/04/23 18:11:00;;;;;;;43.95;38.00;;;23.00;43.70;;;;;;4762074;55;21014;-28
2021/04/23 18:16:02;;;;;;;46.08;38.28;;;22.90;43.60;;;;;;4750622;55;21162;-35
2021/04/23 18:21:03;;;;;;;47.62;39.47;;;22.90;43.60;;;;;;4782150;55;21473;-37
2021/04/23 18:26:04;;;;;;;44.65;38.83;;;22.90;43.50;;;;;;4741943;55;21010;-35
2021/04/23 18:31:05;;;;;;;44.90;38.08;;;22.90;43.60;;;;;;4737792;59;21061;-33
2021/04/23 18:36:08;;;;;;;44.00;37.75;;;22.90;43.40;;;;;;4755510;55;21010;-37
2021/04/23 18:41:09;;;;;;;46.00;37.65;;;22.90;43.40;;;;;;4789343;55;21109;-34
2021/04/23 18:46:10;;;;;;;45.65;38.70;;;22.90;43.30;;;;;;4747727;55;21050;-36
2021/04/23 18:51:12;;;;;;;46.28;39.13;;;22.90;43.30;;;;;;4742119;55;21075;-34
2021/04/23 18:56:13;;;;;;;46.05;39.13;;;22.90;43.30;;;;;;4744571;55;21102;-38
2021/04/23 19:01:14;;;;;;;47.78;40.25;;;22.90;43.30;;;;;;4747092;55;21103;-36
2021/04/23 19:06:16;;;;;;;48.65;38.20;;;22.90;43.20;;;;;;4745972;55;21128;-38
2021/04/23 19:11:17;;;;;;;48.05;39.35;;;22.90;43.10;;;;;;4760263;55;21546;-36
2021/04/23 19:16:19;;;;;;;48.08;39.80;;;22.90;43.20;;;;;;4769907;55;21135;-36
2021/04/23 19:21:20;;;;;;;46.55;38.97;;;22.90;43.10;;;;;;4740991;55;21537;-32
2021/04/23 19:26:21;;;;;;;47.50;38.38;;;22.90;43.00;;;;;;4759730;55;21504;-38
2021/04/23 19:31:22;;;;;;;49.20;39.42;;;22.80;42.90;;;;;;4793405;55;21066;-33
2021/04/23 19:36:23;;;;;;;48.25;40.55;;;22.90;43.00;;;;;;4742494;55;21070;-35
2021/04/23 19:41:24;;;;;;;49.83;39.55;;;22.80;42.90;;;;;;4752389;55;20999;-37
2021/04/23 19:46:25;;;;;;;49.10;39.70;;;22.90;43.00;;;;;;4751822;55;21041;-38
2021/04/23 19:51:26;;;;;;;45.63;38.30;;;22.80;42.90;;;;;;4737921;59;21440;-33
2021/04/23 19:56:27;;;;;;;47.28;39.05;;;22.80;43.00;;;;;;4745083;55;21507;-34
2021/04/23 20:01:28;;;;;;;46.92;39.33;;;22.80;42.90;;;;;;4783833;55;21046;-31
2021/04/23 20:06:28;;;;;;;45.03;37.55;;;22.80;42.90;;;;;;4752812;55;21006;-26
2021/04/23 20:11:29;;;;;;;45.85;38.28;;;22.80;43.00;;;;;;4738545;55;21089;-31
2021/04/23 20:16:30;;;;;;;45.45;38.40;;;22.80;43.00;;;;;;4738513;59;21010;-35
2021/04/23 20:21:32;;;;;;;47.92;38.42;;;22.80;43.00;;;;;;4737870;59;21623;-36
2021/04/23 20:26:34;;;;;;;46.37;37.42;;;22.80;43.00;;;;;;4759541;55;21050;-34
2021/04/23 20:31:34;;;;;;;46.67;37.08;;;22.80;43.00;;;;;;4745396;55;21504;-36
2021/04/23 20:36:38;;;;;;;45.65;36.88;;;22.80;43.00;;;;;;4743288;55;21062;-30
2021/04/23 20:41:39;;;;;;;45.10;36.35;;;22.80;43.00;;;;;;4770043;55;21077;-37
2021/04/23 20:46:40;;;;;;;46.85;37.67;;;22.80;43.00;;;;;;4767520;55;20998;-35
2021/04/23 20:51:41;;;;;;;42.85;36.28;;;22.80;42.90;;;;;;4786778;55;21488;-36
2021/04/23 20:56:42;;;;;;;47.00;37.22;;;22.80;43.00;;;;;;4768236;55;21010;-37
2021/04/23 21:01:43;;;;;;;45.65;36.88;;;22.80;43.00;;;;;;4792774;55;21095;-31
2021/04/23 21:06:43;;;;;;;47.53;37.88;;;22.80;42.90;;;;;;4737835;55;21053;-37
2021/04/23 21:11:44;;;;;;;44.75;37.00;;;22.80;43.00;;;;;;4737855;56;21010;-37
2021/04/23 21:16:48;;;;;;;44.42;36.03;;;22.80;43.00;;;;;;4749319;55;21030;-32
2021/04/23 21:21:51;;;;;;;43.85;36.53;;;22.80;43.60;;;;;;4739082;55;21599;-34
2021/04/23 21:26:55;;;;;;;45.20;36.15;;;22.80;42.80;;;;;;4763965;55;21101;-36
2021/04/23 21:31:56;;;;;;;45.63;37.38;;;22.80;43.00;;;;;;4740159;55;21037;-33
2021/04/23 21:36:57;;;;;;;43.58;36.17;;;22.80;42.90;;;;;;4759662;55;21006;-35
2021/04/23 21:42:00;;;;;;;45.63;37.72;;;22.80;43.00;;;;;;4758255;55;21483;-36
2021/04/23 21:47:01;;;;;;;42.88;35.85;;;22.80;43.10;;;;;;4782315;55;21972;-36
2021/04/23 21:52:02;;;;;;;43.20;35.67;;;22.80;43.00;;;;;;4792986;55;21046;-30
2021/04/23 21:57:04;;;;;;;43.42;35.60;;;22.80;42.60;;;;;;4783956;55;21105;-35
2021/04/23 22:02:04;;;;;;;46.08;36.28;;;22.80;43.00;;;;;;4780435;55;21050;-32
2021/04/23 22:07:05;;;;;;;43.42;36.10;;;22.80;42.90;;;;;;4755994;55;21101;-37
2021/04/23 22:12:08;;;;;;;43.45;35.70;;;22.80;43.00;;;;;;4748288;55;22063;-34
2021/04/23 22:17:08;;;;;;;47.88;36.40;;;22.80;43.20;;;;;;4757855;55;21093;-35
2021/04/23 22:22:10;;;;;;;46.28;36.45;;;22.80;43.00;;;;;;4806507;55;21535;-32
2021/04/23 22:27:11;;;;;;;43.17;34.72;;;22.70;42.90;;;;;;4738225;59;21010;-36
2021/04/23 22:32:12;;;;;;;42.08;34.00;;;22.80;43.00;;;;;;4751491;55;21114;-36
2021/04/23 22:37:13;;;;;;;43.42;35.40;;;22.80;42.90;;;;;;4765448;55;20993;-34
2021/04/23 22:42:14;;;;;;;43.92;35.65;;;22.70;42.90;;;;;;4738116;59;21026;-29
2021/04/23 22:47:15;;;;;;;43.17;34.20;;;22.80;43.00;;;;;;4738425;59;21481;-36
2021/04/23 22:52:15;;;;;;;42.03;34.22;;;22.70;42.80;;;;;;4749697;55;21021;-35
2021/04/23 22:57:16;;;;;;;41.92;34.28;;;22.70;42.90;;;;;;4746118;55;21033;-25
2021/04/23 23:02:17;;;;;;;41.58;33.72;;;22.70;42.90;;;;;;4756470;55;21546;-36
2021/04/23 23:07:18;;;;;;;43.90;35.03;;;22.70;42.90;;;;;;4767388;55;21121;-23
2021/04/23 23:12:19;;;;;;;40.97;32.90;;;22.70;42.90;;;;;;4756523;55;21066;-32
2021/04/23 23:17:20;;;;;;;42.83;34.75;;;22.70;43.00;;;;;;4751542;55;21034;-35
2021/04/23 23:22:21;;;;;;;40.47;33.60;;;22.70;42.80;;;;;;4749586;55;21006;-33
2021/04/23 23:27:22;;;;;;;39.97;32.58;;;22.70;42.80;;;;;;4742476;55;21006;-33
2021/04/23 23:32:23;;;;;;;41.20;33.83;;;22.70;42.90;;;;;;4737916;55;21058;-33
2021/04/23 23:37:24;;;;;;;42.08;34.63;;;22.70;42.80;;;;;;4751794;55;20994;-36
2021/04/23 23:42:25;;;;;;;41.63;33.22;;;22.70;42.70;;;;;;4768590;55;21065;-29
2021/04/23 23:47:26;;;;;;;42.50;33.28;;;22.70;42.70;;;;;;4811037;55;21002;-36
2021/04/23 23:52:27;;;;;;;39.25;31.95;;;22.70;42.70;;;;;;4802431;55;21085;-35
2021/04/23 23:57:27;;;;;;;40.47;32.35;;;22.70;42.70;;;;;;4737855;59;21077;-21
